createdAt,value
2022-07-28T00:00:09.790Z,78.38
2022-07-28T00:05:12.851Z,78.88
2022-07-28T00:10:15.772Z,79.12
2022-07-28T00:15:19.924Z,79.65
2022-07-28T00:20:22.819Z,80.32
2022-07-28T00:25:25.754Z,80.75
2022-07-28T00:30:30.649Z,81.23
2022-07-28T00:35:33.603Z,82.27
2022-07-28T00:40:53.932Z,82.11
2022-07-28T00:45:58.184Z,82.46
2022-07-28T00:51:01.073Z,82.51
2022-07-28T00:56:06.613Z,82.58
2022-07-28T01:01:15.771Z,82.83
2022-07-28T01:06:33.212Z,83.20
2022-07-28T01:11:43.760Z,83.74
2022-07-28T01:16:54.639Z,84.17
2022-07-28T01:21:59.923Z,86.11
2022-07-28T01:27:07.109Z,88.02
2022-07-28T01:32:14.767Z,89.74
2022-07-28T01:37:21.402Z,90.10
2022-07-28T01:42:27.540Z,90.90
2022-07-28T01:47:33.972Z,91.34
2022-07-28T01:52:38.419Z,91.47
2022-07-28T01:57:42.556Z,91.21
2022-07-28T02:02:49.798Z,90.53
2022-07-28T02:07:54.488Z,90.67
2022-07-28T02:12:58.737Z,89.91
2022-07-28T02:18:04.244Z,89.65
2022-07-28T02:23:08.134Z,89.76
2022-07-28T02:28:13.158Z,91.14
2022-07-28T02:33:28.169Z,92.10
2022-07-28T02:38:46.589Z,92.39
2022-07-28T02:43:51.799Z,93.11
2022-07-28T02:49:04.633Z,93.01
2022-07-28T02:54:07.844Z,93.20
2022-07-28T02:59:12.330Z,93.53
2022-07-28T03:04:37.933Z,93.78
2022-07-28T03:09:41.661Z,93.72
2022-07-28T03:14:44.438Z,92.97
2022-07-28T03:19:48.688Z,92.00
2022-07-28T03:24:54.236Z,90.47
2022-07-28T03:30:03.834Z,90.19
2022-07-28T03:35:09.386Z,90.88
2022-07-28T03:40:14.049Z,90.20
2022-07-28T03:45:17.466Z,89.38
2022-07-28T03:50:25.017Z,88.43
2022-07-28T03:55:28.432Z,88.20
2022-07-28T04:00:31.443Z,87.91
2022-07-28T04:05:35.633Z,88.14
2022-07-28T04:10:38.510Z,87.75
2022-07-28T04:15:41.591Z,86.14
2022-07-28T04:20:45.958Z,85.24
2022-07-28T04:25:49.009Z,83.74
2022-07-28T04:30:51.887Z,82.74
2022-07-28T04:35:56.162Z,82.27
2022-07-28T04:40:59.064Z,82.51
2022-07-28T04:46:01.960Z,82.27
2022-07-28T04:51:06.202Z,82.06
2022-07-28T04:56:09.050Z,79.94
2022-07-28T05:01:12.061Z,78.01
2022-07-28T05:06:18.554Z,76.46
2022-07-28T05:11:21.392Z,75.72
2022-07-28T05:16:24.625Z,76.26
2022-07-28T05:21:28.909Z,74.24
2022-07-28T05:26:32.235Z,72.63
2022-07-28T05:31:35.465Z,74.92
2022-07-28T05:36:39.922Z,73.22
2022-07-28T05:41:43.103Z,73.74
2022-07-28T05:46:45.953Z,74.36
2022-07-28T05:51:50.207Z,73.97
2022-07-28T05:56:53.030Z,73.81
2022-07-28T06:01:55.905Z,73.72
2022-07-28T06:07:00.083Z,71.65
2022-07-28T06:12:02.967Z,70.63
2022-07-28T06:17:05.998Z,69.30
2022-07-28T06:22:10.494Z,68.64
2022-07-28T06:27:13.302Z,67.30
2022-07-28T06:32:17.083Z,67.67
2022-07-28T06:37:21.230Z,67.47
2022-07-28T06:42:24.163Z,68.09
2022-07-28T06:47:27.076Z,68.50
2022-07-28T06:52:31.646Z,67.22
2022-07-28T06:57:35.007Z,63.78
2022-07-28T07:02:39.805Z,63.66
2022-07-28T07:07:46.421Z,65.25
2022-07-28T07:12:49.347Z,63.61
2022-07-28T07:17:52.287Z,63.10
2022-07-28T07:22:56.614Z,63.83
2022-07-28T07:27:59.523Z,63.29
2022-07-28T07:33:02.511Z,63.04
2022-07-28T07:38:12.096Z,62.78
2022-07-28T07:43:14.924Z,60.88
2022-07-28T07:48:17.752Z,60.58
2022-07-28T07:53:22.910Z,57.46
2022-07-28T07:58:25.813Z,56.31
2022-07-28T08:03:28.624Z,53.60
2022-07-28T08:08:38.570Z,56.92
2022-07-28T08:13:44.619Z,55.03
2022-07-28T08:18:47.566Z,54.91
2022-07-28T08:23:52.007Z,52.18
2022-07-28T08:28:54.948Z,51.86
2022-07-28T08:33:58.391Z,52.04
2022-07-28T08:39:02.593Z,51.81
2022-07-28T08:44:08.851Z,53.82
2022-07-28T08:49:14.839Z,54.11
2022-07-28T08:54:22.545Z,48.09
2022-07-28T08:59:26.390Z,46.46
2022-07-28T09:04:29.444Z,47.13
2022-07-28T09:09:34.080Z,49.75
2022-07-28T09:14:36.980Z,48.18
2022-07-28T09:19:40.280Z,46.65
2022-07-28T09:24:45.838Z,46.91
2022-07-28T09:29:58.968Z,44.63
2022-07-28T09:35:01.844Z,43.95
2022-07-28T09:40:13.959Z,45.01
2022-07-28T09:45:25.228Z,43.84
2022-07-28T09:50:30.225Z,43.29
2022-07-28T09:55:52.516Z,45.39
2022-07-28T10:01:07.183Z,44.03
2022-07-28T10:06:16.158Z,44.11
2022-07-28T10:11:24.526Z,44.93
2022-07-28T10:16:29.365Z,43.32
2022-07-28T10:21:35.498Z,44.16
2022-07-28T10:26:44.324Z,45.87
2022-07-28T10:31:50.823Z,45.74
2022-07-28T10:36:56.389Z,44.97
2022-07-28T10:42:01.253Z,44.86
2022-07-28T10:47:07.596Z,46.34
2022-07-28T10:52:30.958Z,45.01
2022-07-28T10:57:39.882Z,43.16
2022-07-28T11:02:51.592Z,43.40
2022-07-28T11:07:54.963Z,44.07
2022-07-28T11:13:00.606Z,43.84
2022-07-28T11:18:09.248Z,43.65
2022-07-28T11:23:50.167Z,43.38
2022-07-28T11:29:19.930Z,45.75
2022-07-28T11:34:25.279Z,43.81
2022-07-28T11:39:30.242Z,44.77
2022-07-28T11:44:47.631Z,48.44
2022-07-28T11:50:12.756Z,46.21
2022-07-28T11:55:19.387Z,45.80
2022-07-28T12:00:26.136Z,46.72
2022-07-28T12:05:34.526Z,45.53
2022-07-28T12:10:54.473Z,44.41
2022-07-28T12:15:59.721Z,44.02
2022-07-28T12:21:05.234Z,43.75
2022-07-28T12:26:10.199Z,42.53
2022-07-28T12:31:15.711Z,42.24
2022-07-28T12:36:19.662Z,41.37
2022-07-28T12:41:23.635Z,41.32
2022-07-28T12:46:30.779Z,41.86
2022-07-28T12:51:36.426Z,40.87
2022-07-28T12:56:47.031Z,39.83
2022-07-28T13:01:54.176Z,40.34
2022-07-28T13:06:57.523Z,40.81
2022-07-28T13:12:00.431Z,40.43
2022-07-28T13:17:04.606Z,39.47
2022-07-28T13:22:09.176Z,41.04
2022-07-28T13:27:12.388Z,41.21
2022-07-28T13:32:16.781Z,39.34
2022-07-28T13:37:20.212Z,40.29
2022-07-28T13:42:23.575Z,39.51
2022-07-28T13:47:28.337Z,40.14
2022-07-28T13:52:42.102Z,39.82
2022-07-28T13:57:45.335Z,39.81
2022-07-28T14:02:53.945Z,42.17
2022-07-28T14:07:56.842Z,39.98
2022-07-28T14:13:03.325Z,40.01
2022-07-28T14:18:07.936Z,41.47
2022-07-28T14:23:10.867Z,41.58
2022-07-28T14:28:13.757Z,42.10
2022-07-28T14:33:17.938Z,43.74
2022-07-28T14:38:52.512Z,42.46
2022-07-28T14:43:43.592Z,43.86
2022-07-28T14:48:47.774Z,44.01
2022-07-28T14:53:52.144Z,43.99
2022-07-28T14:58:55.110Z,42.63
2022-07-28T15:03:59.248Z,42.63
2022-07-28T15:09:02.588Z,42.59
2022-07-28T15:14:05.494Z,42.18
2022-07-28T15:19:09.709Z,43.60
2022-07-28T15:24:13.160Z,43.61
2022-07-28T15:29:16.074Z,43.64
2022-07-28T15:34:21.455Z,43.84
2022-07-28T15:39:24.439Z,44.38
2022-07-28T15:44:27.292Z,44.59
2022-07-28T15:49:31.574Z,43.48
2022-07-28T15:54:34.388Z,43.72
2022-07-28T15:59:49.654Z,43.09
2022-07-28T16:04:54.895Z,43.09
2022-07-28T16:09:57.818Z,42.98
2022-07-28T16:15:00.660Z,44.23
2022-07-28T16:20:05.760Z,43.72
2022-07-28T16:25:16.640Z,43.59
2022-07-28T16:30:20.120Z,43.92
2022-07-28T16:35:24.291Z,43.85
2022-07-28T16:40:27.343Z,43.97
2022-07-28T16:45:31.263Z,44.69
2022-07-28T16:50:36.000Z,43.98
2022-07-28T16:55:39.987Z,44.25
2022-07-28T17:00:43.068Z,45.07
2022-07-28T17:05:47.261Z,44.47
2022-07-28T17:10:50.090Z,44.30
2022-07-28T17:15:53.123Z,44.64
2022-07-28T17:20:57.408Z,44.31
2022-07-28T17:31:26.345Z,44.17
2022-07-28T17:36:33.948Z,44.82
2022-07-28T17:41:36.784Z,45.18
2022-07-28T17:46:39.687Z,44.83
2022-07-28T17:51:45.070Z,45.09
2022-07-28T17:56:49.578Z,45.28
2022-07-28T18:01:52.383Z,45.44
2022-07-28T18:06:56.610Z,46.33
2022-07-28T18:11:59.421Z,45.92
2022-07-28T18:17:02.278Z,46.76
2022-07-28T18:22:06.470Z,46.35
2022-07-28T18:27:09.365Z,47.08
2022-07-28T18:32:12.554Z,47.53
2022-07-28T18:37:16.736Z,47.80
2022-07-28T18:42:19.682Z,48.19
2022-07-28T18:47:22.738Z,48.39
2022-07-28T18:52:27.598Z,48.98
2022-07-28T18:57:30.539Z,49.39
2022-07-28T19:02:33.460Z,50.03
2022-07-28T19:07:38.161Z,50.47
2022-07-28T19:12:40.954Z,50.55
2022-07-28T19:17:43.826Z,50.76
2022-07-28T19:22:48.193Z,50.98
2022-07-28T19:27:51.377Z,51.57
2022-07-28T19:32:54.148Z,52.24
2022-07-28T19:38:00.133Z,53.18
2022-07-28T19:43:03.126Z,54.71
2022-07-28T19:48:07.434Z,55.45
2022-07-28T19:53:14.984Z,56.29
2022-07-28T19:58:18.359Z,57.00
2022-07-28T20:04:01.936Z,57.39
2022-07-28T20:08:45.602Z,57.84
2022-07-28T20:13:49.398Z,58.25
2022-07-28T20:18:52.734Z,59.45
2022-07-28T20:23:58.129Z,60.65
2022-07-28T20:29:01.590Z,60.97
2022-07-28T20:34:06.621Z,61.83
2022-07-28T20:39:34.446Z,62.45
2022-07-28T20:44:33.873Z,63.02
2022-07-28T20:49:36.945Z,63.26
2022-07-28T20:54:41.163Z,64.18
2022-07-28T20:59:44.361Z,64.38
2022-07-28T21:04:50.141Z,64.23
2022-07-28T21:09:54.882Z,65.29
2022-07-28T21:14:57.923Z,65.59
2022-07-28T21:20:00.824Z,65.20
2022-07-28T21:25:07.291Z,65.10
2022-07-28T21:30:11.561Z,64.93
2022-07-28T21:35:14.596Z,65.21
2022-07-28T21:40:18.872Z,64.72
2022-07-28T21:45:22.478Z,65.20
2022-07-28T21:50:25.428Z,65.57
2022-07-28T21:55:32.746Z,66.03
2022-07-28T22:00:35.645Z,65.80
2022-07-28T22:05:38.628Z,65.94
2022-07-28T22:10:42.806Z,66.28
2022-07-28T22:15:45.656Z,66.81
2022-07-28T22:20:48.591Z,66.16
2022-07-28T22:25:52.756Z,66.91
2022-07-28T22:30:55.677Z,67.59
2022-07-28T22:35:58.914Z,67.85
2022-07-28T22:41:03.155Z,68.41
2022-07-28T22:46:06.009Z,69.00
2022-07-28T22:51:11.573Z,68.41
2022-07-28T22:56:15.871Z,68.33
2022-07-28T23:01:18.803Z,68.40
2022-07-28T23:06:21.901Z,68.84
2022-07-28T23:11:26.339Z,68.39
2022-07-28T23:16:29.212Z,69.16
2022-07-28T23:21:32.027Z,70.19
2022-07-28T23:26:36.284Z,69.80
2022-07-28T23:31:39.290Z,69.98
2022-07-28T23:36:42.105Z,70.04
2022-07-28T23:41:47.678Z,70.45
2022-07-28T23:46:50.568Z,70.03
2022-07-28T23:51:53.391Z,69.33
2022-07-28T23:56:57.600Z,68.65
